Sheyang, China
Current Conditions -  °F | °C
As of 4:00 PM on Friday 19 Dec 2014 (Local Time) from ZSQD Reporting Station
Clear Clear  
Wind Chill: 42°   Ceiling: Unl
Heat Index: 46°   Visibility: 4mi
Dew Point: 27°   Wind: 9mph
Humidity: 46%   Direction: 190°S
Pressure: 30.12"   Gusts: NA
Location:  33.77°N, 120.25°E
Report Text: ZSQD 190800Z 19004MPS 7000 NSC 08/M03 Q1020 BECMG TL093031005MPS
Loading
Personal Weather Stations






























Interactive Weather Map New forecast layout! Learn more

10-Day Weather Forecast

Advertisements
Track Severe Weather on mobile